Meteo Giornale » Osservazioni meteo Colombia » Yopal
ore: 14:00 - Osservazioni Meteo Yopal
Lat. 5° 19' N Lon. 72° 23' W Alt. 3130 metri s.l.m.
33 °C
Nuvoloso
Temp. 24 Ore
25 °C
33 °C
Nord-Est
18.5 Km/h
Dew point 21 °C
Umidità 49 %
Visibilità 10 Km
Il sole sorge alle ore 05:42
Il sole tramonta alle ore 17:55
| Data e Ora | Cielo e Fenomeni | T °C | DP °C | Um. % | Pres. hPa | Vis. km | Vento km/h | |
|---|---|---|---|---|---|---|---|---|
| Oggi h: 14:00 | Nuvoloso | 33 | 21 | 49 | 1011 | 10 | NE 18.5 | |
| Oggi h: 13:00 | Nuvoloso | 33 | 21 | 49 | 1012 | 10 | E 22.2 | |
| Oggi h: 12:00 | Nuvoloso | 32 | 23 | 59 | 1014 | 10 | E 13 | |
| Oggi h: 11:00 | Nuvoloso | 32 | 22 | 55 | 1014 | 10 | E/SE 7.4 | |
| Oggi h: 10:00 | Nuvoloso | 31 | 22 | 58 | 1014 | 10 | E/SE 7.4 | |
| Oggi h: 09:00 | Molto Nuvoloso | 29 | 21 | 62 | 1014 | 10 | N 5.5 | |
| Oggi h: 08:00 | Nuvoloso | 29 | 20 | 58 | 1014 | 10 | N 5.5 | |
| Oggi h: 07:00 | Nuvoloso | 27 | 20 | 65 | 1013 | 10 | N 9.3 | |
| Oggi h: 06:00 | Nuvoloso | 26 | 20 | 69 | 1012 | 10 | N 11.1 | |
| Oggi h: 05:00 | Sereno | 26 | 20 | 69 | 1012 | 10 | N 11.1 | |
| Oggi h: 04:00 | Sereno | 26 | 21 | 73 | 1012 | 10 | N 11.1 | |
| Oggi h: 03:00 | Sereno | 26 | 21 | 73 | 1012 | 10 | N 13 | |
| Oggi h: 02:00 | Sereno | 26 | 21 | 73 | 1012 | 10 | N 11.1 | |
| Oggi h: 01:00 | Sereno | 26 | 21 | 73 | 1013 | 10 | N 13 | |
| Oggi h: 00:00 | Sereno | 27 | 22 | 74 | 1013 | 10 | N 13 | |
| Ieri h: 23:00 | Sereno | 26 | 23 | 83 | 1014 | 10 | N 5.5 | |
| Ieri h: 22:00 | Sereno | 25 | 24 | 94 | 1014 | 10 | N 5.5 | |
| Ieri h: 21:00 | Molto Nuvoloso | 25 | 25 | 100 | 1014 | 10 | N 5.5 | |
| Ieri h: 20:00 | Pioggia nelle vicinanze | 25 | 25 | 100 | 1013 | 8 | SO 7.4 | |
| Ieri h: 19:00 | Pioggia nelle vicinanze | 26 | 24 | 88 | 1012 | 8 | N 5.5 | |
| Ieri h: 18:17 | Pioggia nelle vicinanze | 27 | 24 | 83 | 1012 | 8 | E 9.3 | |
| Ieri h: 18:00 | Molto Nuvoloso | 29 | 24 | 74 | 1011 | 10 | E 7.4 | |
| Ieri h: 17:00 | Nuvoloso | 31 | 23 | 62 | 1010 | 10 | E 9.3 | |
| Ieri h: 16:00 | Nuvoloso | 33 | 23 | 55 | 1010 | 10 | E 9.3 | |



